Aviation Digital Data Service (ADDS)

Output produced by METARs form (0104 UTC 26 October 2014)
found at http://aviationweather.gov/adds/metars/
 
KDCA 252338Z 2600/2624 24006KT P6SM FEW250 
     FM261400 30015G25KT P6SM SKC